sensor_id;sensor_type;location;lat;lon;timestamp;P1;P2;P0
42002;PMS7003;27693;50.506;30.832;2023-08-06T00:00:21;21.70;19.60;15.90
42002;PMS7003;27693;50.506;30.832;2023-08-06T00:01:24;19.30;17.60;14.50
42002;PMS7003;27693;50.506;30.832;2023-08-06T00:02:28;18.50;18.00;13.50
42002;PMS7003;27693;50.506;30.832;2023-08-06T00:03:30;18.44;17.00;13.67
42002;PMS7003;27693;50.506;30.832;2023-08-06T00:04:32;20.70;19.40;15.20
42002;PMS7003;27693;50.506;30.832;2023-08-06T00:05:36;18.80;16.10;13.10
42002;PMS7003;27693;50.506;30.832;2023-08-06T00:06:38;20.60;17.30;14.20
42002;PMS7003;27693;50.506;30.832;2023-08-06T00:07:41;21.27;20.09;15.91
42002;PMS7003;27693;50.506;30.832;2023-08-06T00:08:43;19.80;18.70;15.00
42002;PMS7003;27693;50.506;30.832;2023-08-06T00:09:46;21.30;19.30;15.50
42002;PMS7003;27693;50.506;30.832;2023-08-06T00:10:48;19.40;18.00;15.20
42002;PMS7003;27693;50.506;30.832;2023-08-06T00:11:50;25.20;19.40;15.00
42002;PMS7003;27693;50.506;30.832;2023-08-06T00:12:53;22.60;19.40;15.10
42002;PMS7003;27693;50.506;30.832;2023-08-06T00:13:57;15.60;13.80;9.70
42002;PMS7003;27693;50.506;30.832;2023-08-06T00:14:59;21.10;17.60;13.40
42002;PMS7003;27693;50.506;30.832;2023-08-06T00:16:13;18.60;17.30;12.80
42002;PMS7003;27693;50.506;30.832;2023-08-06T00:17:16;20.20;18.30;13.20
42002;PMS7003;27693;50.506;30.832;2023-08-06T00:18:19;20.40;17.70;15.20
42002;PMS7003;27693;50.506;30.832;2023-08-06T00:19:22;16.60;15.50;12.50
42002;PMS7003;27693;50.506;30.832;2023-08-06T00:20:24;18.00;17.20;13.50
42002;PMS7003;27693;50.506;30.832;2023-08-06T00:21:26;19.40;18.00;14.50
42002;PMS7003;27693;50.506;30.832;2023-08-06T00:22:28;19.00;18.30;13.70
42002;PMS7003;27693;50.506;30.832;2023-08-06T00:23:31;18.90;16.80;12.50
42002;PMS7003;27693;50.506;30.832;2023-08-06T00:24:34;17.80;16.10;12.30
42002;PMS7003;27693;50.506;30.832;2023-08-06T00:25:37;21.50;18.90;14.90
42002;PMS7003;27693;50.506;30.832;2023-08-06T00:26:39;17.60;16.70;12.50
42002;PMS7003;27693;50.506;30.832;2023-08-06T00:27:41;10.10;8.80;5.70
42002;PMS7003;27693;50.506;30.832;2023-08-06T00:28:44;20.70;18.40;15.50
42002;PMS7003;27693;50.506;30.832;2023-08-06T00:29:47;19.90;18.70;14.80
42002;PMS7003;27693;50.506;30.832;2023-08-06T00:30:55;17.60;17.00;13.30
42002;PMS7003;27693;50.506;30.832;2023-08-06T00:31:58;21.50;17.50;13.70
42002;PMS7003;27693;50.506;30.832;2023-08-06T00:33:00;15.80;15.80;13.90
42002;PMS7003;27693;50.506;30.832;2023-08-06T00:34:03;15.30;14.80;12.10
42002;PMS7003;27693;50.506;30.832;2023-08-06T00:35:06;15.60;14.70;12.70
42002;PMS7003;27693;50.506;30.832;2023-08-06T00:36:09;17.10;16.50;14.40
42002;PMS7003;27693;50.506;30.832;2023-08-06T00:37:11;20.00;18.22;14.33
42002;PMS7003;27693;50.506;30.832;2023-08-06T00:38:15;19.09;18.36;13.91
42002;PMS7003;27693;50.506;30.832;2023-08-06T00:39:17;17.60;17.50;13.40
42002;PMS7003;27693;50.506;30.832;2023-08-06T00:40:21;17.60;16.10;12.90
42002;PMS7003;27693;50.506;30.832;2023-08-06T00:41:24;17.60;16.70;13.50
42002;PMS7003;27693;50.506;30.832;2023-08-06T00:42:26;19.33;18.00;13.67
42002;PMS7003;27693;50.506;30.832;2023-08-06T00:43:28;16.33;15.44;13.00
42002;PMS7003;27693;50.506;30.832;2023-08-06T00:44:30;19.22;17.56;13.78
42002;PMS7003;27693;50.506;30.832;2023-08-06T00:45:33;17.00;16.33;13.33
42002;PMS7003;27693;50.506;30.832;2023-08-06T00:46:37;18.30;18.10;14.10
42002;PMS7003;27693;50.506;30.832;2023-08-06T00:47:40;18.80;17.40;14.00
42002;PMS7003;27693;50.506;30.832;2023-08-06T00:48:44;17.73;17.09;14.09
42002;PMS7003;27693;50.506;30.832;2023-08-06T00:49:46;18.22;17.67;14.11
42002;PMS7003;27693;50.506;30.832;2023-08-06T00:50:49;18.20;16.60;13.20
42002;PMS7003;27693;50.506;30.832;2023-08-06T00:51:52;17.20;16.20;13.50
42002;PMS7003;27693;50.506;30.832;2023-08-06T00:52:55;18.10;15.40;12.00
42002;PMS7003;27693;50.506;30.832;2023-08-06T00:53:58;17.44;16.89;11.11
42002;PMS7003;27693;50.506;30.832;2023-08-06T00:55:00;19.89;16.78;12.56
42002;PMS7003;27693;50.506;30.832;2023-08-06T00:56:03;18.00;16.67;13.11
42002;PMS7003;27693;50.506;30.832;2023-08-06T00:57:05;17.67;17.11;14.00
42002;PMS7003;27693;50.506;30.832;2023-08-06T00:58:10;20.10;18.50;14.80
42002;PMS7003;27693;50.506;30.832;2023-08-06T00:59:14;18.20;16.30;14.20
42002;PMS7003;27693;50.506;30.832;2023-08-06T01:00:17;14.67;14.44;11.44
42002;PMS7003;27693;50.506;30.832;2023-08-06T01:01:20;17.30;15.50;12.50
42002;PMS7003;27693;50.506;30.832;2023-08-06T01:02:23;18.70;17.70;14.60
42002;PMS7003;27693;50.506;30.832;2023-08-06T01:03:26;19.00;15.89;12.89
42002;PMS7003;27693;50.506;30.832;2023-08-06T01:04:29;18.20;16.10;12.80
42002;PMS7003;27693;50.506;30.832;2023-08-06T01:05:34;18.10;15.60;12.50
42002;PMS7003;27693;50.506;30.832;2023-08-06T01:13:48;17.50;16.60;12.90
42002;PMS7003;27693;50.506;30.832;2023-08-06T01:14:56;18.00;16.80;14.10
42002;PMS7003;27693;50.506;30.832;2023-08-06T01:16:02;16.80;16.30;12.40
42002;PMS7003;27693;50.506;30.832;2023-08-06T01:17:07;17.10;17.10;12.80
42002;PMS7003;27693;50.506;30.832;2023-08-06T01:18:11;17.30;16.80;13.30
42002;PMS7003;27693;50.506;30.832;2023-08-06T01:19:20;17.90;15.60;12.70
42002;PMS7003;27693;50.506;30.832;2023-08-06T01:20:20;18.50;15.50;12.80
42002;PMS7003;27693;50.506;30.832;2023-08-06T01:21:23;16.80;16.30;12.90
42002;PMS7003;27693;50.506;30.832;2023-08-06T01:22:25;14.56;14.00;11.67
42002;PMS7003;27693;50.506;30.832;2023-08-06T01:23:27;18.60;17.50;13.20
42002;PMS7003;27693;50.506;30.832;2023-08-06T01:24:32;17.60;16.10;13.70
42002;PMS7003;27693;50.506;30.832;2023-08-06T01:25:35;18.33;17.00;13.00
42002;PMS7003;27693;50.506;30.832;2023-08-06T01:26:42;21.00;18.20;14.50
42002;PMS7003;27693;50.506;30.832;2023-08-06T01:27:47;19.60;17.10;13.80
42002;PMS7003;27693;50.506;30.832;2023-08-06T01:30:12;16.50;15.50;12.60
42002;PMS7003;27693;50.506;30.832;2023-08-06T01:31:22;16.90;15.80;12.90
42002;PMS7003;27693;50.506;30.832;2023-08-06T01:32:26;20.50;17.40;13.70
42002;PMS7003;27693;50.506;30.832;2023-08-06T01:33:32;17.00;16.40;13.10
42002;PMS7003;27693;50.506;30.832;2023-08-06T01:34:39;19.40;18.50;15.50
42002;PMS7003;27693;50.506;30.832;2023-08-06T01:35:45;17.30;16.50;13.80
42002;PMS7003;27693;50.506;30.832;2023-08-06T01:36:50;17.40;16.80;13.70
42002;PMS7003;27693;50.506;30.832;2023-08-06T01:37:53;20.50;18.50;14.30
42002;PMS7003;27693;50.506;30.832;2023-08-06T01:38:58;20.40;17.90;13.70
42002;PMS7003;27693;50.506;30.832;2023-08-06T01:40:01;17.50;15.40;12.60
42002;PMS7003;27693;50.506;30.832;2023-08-06T01:41:06;19.50;17.30;14.50
42002;PMS7003;27693;50.506;30.832;2023-08-06T01:42:08;19.10;17.70;13.20
42002;PMS7003;27693;50.506;30.832;2023-08-06T01:43:11;17.50;16.30;13.50
42002;PMS7003;27693;50.506;30.832;2023-08-06T01:44:13;16.80;16.20;14.00
42002;PMS7003;27693;50.506;30.832;2023-08-06T01:45:16;15.70;13.90;9.50
42002;PMS7003;27693;50.506;30.832;2023-08-06T01:46:18;17.89;15.44;12.56
42002;PMS7003;27693;50.506;30.832;2023-08-06T01:47:21;19.80;17.60;14.50
42002;PMS7003;27693;50.506;30.832;2023-08-06T01:48:23;19.10;17.10;12.70
42002;PMS7003;27693;50.506;30.832;2023-08-06T01:49:26;17.20;17.20;13.30
42002;PMS7003;27693;50.506;30.832;2023-08-06T01:50:29;17.09;16.45;13.82
42002;PMS7003;27693;50.506;30.832;2023-08-06T01:51:31;17.70;16.60;13.50
42002;PMS7003;27693;50.506;30.832;2023-08-06T01:52:34;20.40;18.90;14.50
42002;PMS7003;27693;50.506;30.832;2023-08-06T01:53:36;16.60;14.50;11.80
42002;PMS7003;27693;50.506;30.832;2023-08-06T01:54:40;17.80;16.90;12.60
42002;PMS7003;27693;50.506;30.832;2023-08-06T01:55:47;16.60;15.40;12.60
42002;PMS7003;27693;50.506;30.832;2023-08-06T01:56:50;20.20;18.80;14.00
42002;PMS7003;27693;50.506;30.832;2023-08-06T01:57:53;19.10;17.50;13.60
42002;PMS7003;27693;50.506;30.832;2023-08-06T01:58:55;17.00;15.90;12.50
42002;PMS7003;27693;50.506;30.832;2023-08-06T01:59:58;19.40;18.10;14.00
42002;PMS7003;27693;50.506;30.832;2023-08-06T02:01:01;19.10;17.70;13.30
42002;PMS7003;27693;50.506;30.832;2023-08-06T02:02:05;18.20;16.10;13.20
42002;PMS7003;27693;50.506;30.832;2023-08-06T02:03:07;18.20;17.20;13.80
42002;PMS7003;27693;50.506;30.832;2023-08-06T02:04:10;22.30;18.80;14.00
42002;PMS7003;27693;50.506;30.832;2023-08-06T02:05:12;19.40;17.90;13.30
42002;PMS7003;27693;50.506;30.832;2023-08-06T02:06:15;18.70;17.10;14.30
42002;PMS7003;27693;50.506;30.832;2023-08-06T02:07:19;19.00;18.20;14.50
42002;PMS7003;27693;50.506;30.832;2023-08-06T02:08:22;18.90;17.40;12.40
42002;PMS7003;27693;50.506;30.832;2023-08-06T02:09:24;18.90;18.00;14.10
42002;PMS7003;27693;50.506;30.832;2023-08-06T02:10:28;17.30;15.80;12.70
42002;PMS7003;27693;50.506;30.832;2023-08-06T02:11:30;19.60;18.10;13.40
42002;PMS7003;27693;50.506;30.832;2023-08-06T02:12:32;19.80;17.60;13.80
42002;PMS7003;27693;50.506;30.832;2023-08-06T02:13:34;16.80;15.70;13.90
42002;PMS7003;27693;50.506;30.832;2023-08-06T02:14:37;20.70;18.80;15.00
42002;PMS7003;27693;50.506;30.832;2023-08-06T02:15:43;22.70;20.20;15.00
42002;PMS7003;27693;50.506;30.832;2023-08-06T02:16:47;18.90;18.10;15.10
42002;PMS7003;27693;50.506;30.832;2023-08-06T02:17:52;17.50;16.80;12.90
42002;PMS7003;27693;50.506;30.832;2023-08-06T02:18:54;20.20;18.00;14.40
42002;PMS7003;27693;50.506;30.832;2023-08-06T02:19:56;18.40;16.30;13.50
42002;PMS7003;27693;50.506;30.832;2023-08-06T02:20:59;19.18;16.64;13.18
42002;PMS7003;27693;50.506;30.832;2023-08-06T02:22:03;17.10;17.10;12.70
42002;PMS7003;27693;50.506;30.832;2023-08-06T02:23:06;19.70;18.40;13.40
42002;PMS7003;27693;50.506;30.832;2023-08-06T02:24:09;16.60;16.40;13.70
42002;PMS7003;27693;50.506;30.832;2023-08-06T02:25:11;19.44;18.22;13.89
42002;PMS7003;27693;50.506;30.832;2023-08-06T02:26:13;20.70;19.00;15.40
42002;PMS7003;27693;50.506;30.832;2023-08-06T02:27:16;17.90;16.60;13.60
42002;PMS7003;27693;50.506;30.832;2023-08-06T02:28:18;21.00;18.90;14.40
42002;PMS7003;27693;50.506;30.832;2023-08-06T02:29:21;18.90;17.10;14.10
42002;PMS7003;27693;50.506;30.832;2023-08-06T02:30:23;20.30;17.90;14.40
42002;PMS7003;27693;50.506;30.832;2023-08-06T02:31:26;19.40;17.40;13.60
42002;PMS7003;27693;50.506;30.832;2023-08-06T02:32:28;18.80;16.90;13.50
42002;PMS7003;27693;50.506;30.832;2023-08-06T02:33:34;18.70;17.70;14.80
42002;PMS7003;27693;50.506;30.832;2023-08-06T02:34:36;21.70;18.10;14.60
42002;PMS7003;27693;50.506;30.832;2023-08-06T02:35:39;17.90;16.90;13.40
42002;PMS7003;27693;50.506;30.832;2023-08-06T02:36:41;18.50;17.40;13.60
42002;PMS7003;27693;50.506;30.832;2023-08-06T02:37:44;21.30;18.50;14.20
42002;PMS7003;27693;50.506;30.832;2023-08-06T02:38:46;22.20;18.30;15.40
42002;PMS7003;27693;50.506;30.832;2023-08-06T02:39:49;19.40;18.00;15.20
42002;PMS7003;27693;50.506;30.832;2023-08-06T02:40:52;21.40;17.50;14.40
42002;PMS7003;27693;50.506;30.832;2023-08-06T02:41:54;18.60;18.20;14.60
42002;PMS7003;27693;50.506;30.832;2023-08-06T02:42:57;22.10;18.70;14.60
42002;PMS7003;27693;50.506;30.832;2023-08-06T02:44:00;19.60;16.20;12.80
42002;PMS7003;27693;50.506;30.832;2023-08-06T02:45:03;16.70;14.40;11.30
42002;PMS7003;27693;50.506;30.832;2023-08-06T02:46:06;19.20;18.20;14.50
42002;PMS7003;27693;50.506;30.832;2023-08-06T02:47:10;20.50;18.80;14.90
42002;PMS7003;27693;50.506;30.832;2023-08-06T02:48:12;16.80;16.80;13.10
42002;PMS7003;27693;50.506;30.832;2023-08-06T02:49:16;20.00;17.60;14.10
42002;PMS7003;27693;50.506;30.832;2023-08-06T02:50:20;20.90;17.80;13.80
42002;PMS7003;27693;50.506;30.832;2023-08-06T02:51:23;19.50;18.50;14.40
42002;PMS7003;27693;50.506;30.832;2023-08-06T02:52:25;19.80;17.70;14.70
42002;PMS7003;27693;50.506;30.832;2023-08-06T02:53:28;18.60;17.60;13.50
42002;PMS7003;27693;50.506;30.832;2023-08-06T02:54:31;18.90;17.10;13.10
42002;PMS7003;27693;50.506;30.832;2023-08-06T02:55:34;17.80;16.50;13.30
42002;PMS7003;27693;50.506;30.832;2023-08-06T02:56:42;18.70;17.80;14.80
42002;PMS7003;27693;50.506;30.832;2023-08-06T02:57:57;20.80;19.20;15.20
42002;PMS7003;27693;50.506;30.832;2023-08-06T02:59:00;19.60;17.70;14.20
42002;PMS7003;27693;50.506;30.832;2023-08-06T03:00:05;17.70;16.80;14.50
42002;PMS7003;27693;50.506;30.832;2023-08-06T03:01:08;17.50;17.20;14.00
42002;PMS7003;27693;50.506;30.832;2023-08-06T03:02:16;18.30;18.30;14.30
42002;PMS7003;27693;50.506;30.832;2023-08-06T03:03:21;22.20;19.90;15.40
42002;PMS7003;27693;50.506;30.832;2023-08-06T03:04:25;20.20;18.40;14.90
42002;PMS7003;27693;50.506;30.832;2023-08-06T03:05:27;20.30;18.60;13.60
42002;PMS7003;27693;50.506;30.832;2023-08-06T03:06:30;19.09;18.91;15.09
42002;PMS7003;27693;50.506;30.832;2023-08-06T03:07:33;19.90;19.90;16.00
42002;PMS7003;27693;50.506;30.832;2023-08-06T03:08:40;19.80;19.10;13.90
42002;PMS7003;27693;50.506;30.832;2023-08-06T03:09:45;20.80;18.40;15.10
42002;PMS7003;27693;50.506;30.832;2023-08-06T03:10:49;17.91;17.27;13.09
42002;PMS7003;27693;50.506;30.832;2023-08-06T03:11:52;18.10;17.20;14.50
42002;PMS7003;27693;50.506;30.832;2023-08-06T03:12:55;19.60;18.30;15.40
42002;PMS7003;27693;50.506;30.832;2023-08-06T03:13:58;19.90;18.90;14.80
42002;PMS7003;27693;50.506;30.832;2023-08-06T03:15:01;18.60;17.80;14.10
42002;PMS7003;27693;50.506;30.832;2023-08-06T03:16:05;19.40;17.80;14.80
42002;PMS7003;27693;50.506;30.832;2023-08-06T03:17:08;20.40;17.40;14.50
42002;PMS7003;27693;50.506;30.832;2023-08-06T03:18:10;19.30;19.20;14.60
42002;PMS7003;27693;50.506;30.832;2023-08-06T03:19:13;21.91;20.36;15.64
42002;PMS7003;27693;50.506;30.832;2023-08-06T03:20:16;20.20;16.80;14.20
42002;PMS7003;27693;50.506;30.832;2023-08-06T03:21:18;22.40;19.50;15.80
42002;PMS7003;27693;50.506;30.832;2023-08-06T03:22:21;20.90;19.30;14.70
42002;PMS7003;27693;50.506;30.832;2023-08-06T03:23:24;22.80;19.50;14.40
42002;PMS7003;27693;50.506;30.832;2023-08-06T03:24:26;21.00;19.50;15.80
42002;PMS7003;27693;50.506;30.832;2023-08-06T03:25:29;20.55;19.36;14.64
42002;PMS7003;27693;50.506;30.832;2023-08-06T03:26:32;23.20;20.30;15.00
42002;PMS7003;27693;50.506;30.832;2023-08-06T03:27:34;21.10;18.60;15.00
42002;PMS7003;27693;50.506;30.832;2023-08-06T03:28:36;17.10;16.50;13.00
42002;PMS7003;27693;50.506;30.832;2023-08-06T03:29:40;22.30;21.50;16.40
42002;PMS7003;27693;50.506;30.832;2023-08-06T03:30:43;19.70;18.50;15.40
42002;PMS7003;27693;50.506;30.832;2023-08-06T03:31:45;17.55;16.91;13.27
42002;PMS7003;27693;50.506;30.832;2023-08-06T03:32:49;16.20;15.10;11.70
42002;PMS7003;27693;50.506;30.832;2023-08-06T03:33:52;22.20;20.50;16.30
42002;PMS7003;27693;50.506;30.832;2023-08-06T03:34:57;16.80;15.80;13.90
42002;PMS7003;27693;50.506;30.832;2023-08-06T03:36:00;20.80;18.20;15.00
42002;PMS7003;27693;50.506;30.832;2023-08-06T03:37:05;19.60;18.60;14.70
42002;PMS7003;27693;50.506;30.832;2023-08-06T03:38:08;17.50;17.50;13.80
42002;PMS7003;27693;50.506;30.832;2023-08-06T03:39:10;19.60;19.60;15.40
42002;PMS7003;27693;50.506;30.832;2023-08-06T03:40:13;20.80;18.40;14.70
42002;PMS7003;27693;50.506;30.832;2023-08-06T03:41:16;22.00;18.60;15.40
42002;PMS7003;27693;50.506;30.832;2023-08-06T03:42:19;20.70;20.30;15.80
42002;PMS7003;27693;50.506;30.832;2023-08-06T03:43:22;23.10;20.80;15.20
42002;PMS7003;27693;50.506;30.832;2023-08-06T03:44:25;20.90;19.00;15.00
42002;PMS7003;27693;50.506;30.832;2023-08-06T03:45:30;20.70;19.30;15.60
42002;PMS7003;27693;50.506;30.832;2023-08-06T03:46:32;18.10;18.10;14.40
42002;PMS7003;27693;50.506;30.832;2023-08-06T03:47:36;22.50;20.90;17.80
42002;PMS7003;27693;50.506;30.832;2023-08-06T03:48:39;21.00;19.00;15.82
42002;PMS7003;27693;50.506;30.832;2023-08-06T03:49:41;20.30;19.50;16.30
42002;PMS7003;27693;50.506;30.832;2023-08-06T03:50:45;20.70;18.40;15.10
42002;PMS7003;27693;50.506;30.832;2023-08-06T03:51:48;22.30;18.90;15.30
42002;PMS7003;27693;50.506;30.832;2023-08-06T03:52:50;22.00;20.70;15.90
42002;PMS7003;27693;50.506;30.832;2023-08-06T03:53:52;22.10;18.80;16.30
42002;PMS7003;27693;50.506;30.832;2023-08-06T03:54:55;18.80;17.70;14.20
42002;PMS7003;27693;50.506;30.832;2023-08-06T03:55:57;25.90;21.50;16.30
42002;PMS7003;27693;50.506;30.832;2023-08-06T03:57:01;18.70;17.70;14.50
42002;PMS7003;27693;50.506;30.832;2023-08-06T03:58:04;23.30;20.30;15.60
42002;PMS7003;27693;50.506;30.832;2023-08-06T03:59:06;22.55;22.27;17.27
42002;PMS7003;27693;50.506;30.832;2023-08-06T04:00:10;22.90;20.50;15.30
42002;PMS7003;27693;50.506;30.832;2023-08-06T04:01:16;21.70;19.80;16.20
42002;PMS7003;27693;50.506;30.832;2023-08-06T04:02:20;22.70;21.80;15.60
42002;PMS7003;27693;50.506;30.832;2023-08-06T04:03:22;21.10;18.90;16.30
42002;PMS7003;27693;50.506;30.832;2023-08-06T04:04:25;23.70;20.70;15.40
42002;PMS7003;27693;50.506;30.832;2023-08-06T04:05:27;18.60;17.50;14.20
42002;PMS7003;27693;50.506;30.832;2023-08-06T04:06:34;20.80;19.00;14.50
42002;PMS7003;27693;50.506;30.832;2023-08-06T04:07:36;21.82;20.18;16.55
42002;PMS7003;27693;50.506;30.832;2023-08-06T04:08:39;19.40;17.90;14.50
42002;PMS7003;27693;50.506;30.832;2023-08-06T04:09:56;21.60;21.30;15.50
42002;PMS7003;27693;50.506;30.832;2023-08-06T04:11:00;22.00;20.70;16.90
42002;PMS7003;27693;50.506;30.832;2023-08-06T04:12:02;21.89;20.78;15.56
42002;PMS7003;27693;50.506;30.832;2023-08-06T04:13:07;20.10;19.60;16.10
42002;PMS7003;27693;50.506;30.832;2023-08-06T04:14:10;23.50;20.80;16.20
42002;PMS7003;27693;50.506;30.832;2023-08-06T04:15:12;20.60;19.20;15.40
42002;PMS7003;27693;50.506;30.832;2023-08-06T04:16:15;20.30;18.80;15.50
42002;PMS7003;27693;50.506;30.832;2023-08-06T04:17:17;24.33;20.89;15.56
42002;PMS7003;27693;50.506;30.832;2023-08-06T04:18:23;23.80;22.80;18.40
42002;PMS7003;27693;50.506;30.832;2023-08-06T04:19:27;23.80;20.50;16.20
42002;PMS7003;27693;50.506;30.832;2023-08-06T04:20:30;25.70;21.70;17.10
42002;PMS7003;27693;50.506;30.832;2023-08-06T04:21:33;20.90;19.00;14.80
42002;PMS7003;27693;50.506;30.832;2023-08-06T04:22:35;22.30;20.40;15.10
42002;PMS7003;27693;50.506;30.832;2023-08-06T04:23:38;24.30;22.00;17.30
42002;PMS7003;27693;50.506;30.832;2023-08-06T04:24:42;26.10;21.20;16.50
42002;PMS7003;27693;50.506;30.832;2023-08-06T04:25:46;20.80;19.50;15.40
42002;PMS7003;27693;50.506;30.832;2023-08-06T04:26:51;22.80;22.40;17.50
42002;PMS7003;27693;50.506;30.832;2023-08-06T04:27:53;22.30;20.30;16.20
42002;PMS7003;27693;50.506;30.832;2023-08-06T04:28:56;24.36;22.91;16.82
42002;PMS7003;27693;50.506;30.832;2023-08-06T04:29:58;24.11;22.44;17.33
42002;PMS7003;27693;50.506;30.832;2023-08-06T04:31:01;22.45;20.82;16.45
42002;PMS7003;27693;50.506;30.832;2023-08-06T04:32:06;23.70;21.90;17.60
42002;PMS7003;27693;50.506;30.832;2023-08-06T04:33:10;23.80;22.00;18.00
42002;PMS7003;27693;50.506;30.832;2023-08-06T04:34:12;22.60;20.90;16.30
42002;PMS7003;27693;50.506;30.832;2023-08-06T04:35:15;10.90;9.40;3.60
42002;PMS7003;27693;50.506;30.832;2023-08-06T04:36:18;26.73;23.00;17.18
42002;PMS7003;27693;50.506;30.832;2023-08-06T04:37:20;21.70;20.40;16.50
42002;PMS7003;27693;50.506;30.832;2023-08-06T04:38:24;23.60;20.30;15.20
42002;PMS7003;27693;50.506;30.832;2023-08-06T04:39:30;24.10;21.20;17.30
42002;PMS7003;27693;50.506;30.832;2023-08-06T04:40:34;21.00;20.80;16.60
42002;PMS7003;27693;50.506;30.832;2023-08-06T04:41:37;19.70;19.70;15.20
42002;PMS7003;27693;50.506;30.832;2023-08-06T04:42:41;21.00;20.40;16.00
42002;PMS7003;27693;50.506;30.832;2023-08-06T04:43:43;20.60;18.80;15.50
42002;PMS7003;27693;50.506;30.832;2023-08-06T04:44:45;22.40;20.30;14.80
42002;PMS7003;27693;50.506;30.832;2023-08-06T04:45:50;27.00;22.70;18.30
42002;PMS7003;27693;50.506;30.832;2023-08-06T04:46:53;21.50;19.90;15.30
42002;PMS7003;27693;50.506;30.832;2023-08-06T04:47:55;25.00;22.60;18.00
42002;PMS7003;27693;50.506;30.832;2023-08-06T04:48:58;25.80;21.80;17.80
42002;PMS7003;27693;50.506;30.832;2023-08-06T04:50:00;24.09;22.09;17.27
42002;PMS7003;27693;50.506;30.832;2023-08-06T04:51:04;21.20;19.70;16.20
42002;PMS7003;27693;50.506;30.832;2023-08-06T04:52:06;23.30;22.30;17.90
42002;PMS7003;27693;50.506;30.832;2023-08-06T04:53:09;22.90;21.60;16.40
42002;PMS7003;27693;50.506;30.832;2023-08-06T04:54:11;20.80;20.40;16.10
42002;PMS7003;27693;50.506;30.832;2023-08-06T04:55:13;24.00;21.89;16.22
42002;PMS7003;27693;50.506;30.832;2023-08-06T04:56:17;24.40;21.50;16.60
42002;PMS7003;27693;50.506;30.832;2023-08-06T04:57:20;22.80;21.40;17.20
42002;PMS7003;27693;50.506;30.832;2023-08-06T04:58:22;23.60;22.10;16.60
42002;PMS7003;27693;50.506;30.832;2023-08-06T04:59:25;26.73;22.36;16.64
42002;PMS7003;27693;50.506;30.832;2023-08-06T05:00:28;25.10;24.30;17.40
42002;PMS7003;27693;50.506;30.832;2023-08-06T05:01:30;24.10;23.20;18.90
42002;PMS7003;27693;50.506;30.832;2023-08-06T05:02:33;23.90;22.70;18.00
42002;PMS7003;27693;50.506;30.832;2023-08-06T05:03:36;23.50;21.70;17.10
42002;PMS7003;27693;50.506;30.832;2023-08-06T05:04:40;18.60;17.20;13.70
42002;PMS7003;27693;50.506;30.832;2023-08-06T05:05:43;24.70;22.70;18.60
42002;PMS7003;27693;50.506;30.832;2023-08-06T05:06:48;20.10;19.30;15.10
42002;PMS7003;27693;50.506;30.832;2023-08-06T05:07:50;22.00;21.60;18.10
42002;PMS7003;27693;50.506;30.832;2023-08-06T05:08:52;26.40;24.90;18.40
42002;PMS7003;27693;50.506;30.832;2023-08-06T05:09:55;25.40;24.50;18.50
42002;PMS7003;27693;50.506;30.832;2023-08-06T05:10:57;24.50;23.30;17.60
42002;PMS7003;27693;50.506;30.832;2023-08-06T05:12:00;23.10;21.90;18.00
42002;PMS7003;27693;50.506;30.832;2023-08-06T05:13:04;23.70;21.60;17.40
42002;PMS7003;27693;50.506;30.832;2023-08-06T05:14:06;22.80;22.20;18.00
42002;PMS7003;27693;50.506;30.832;2023-08-06T05:15:09;25.50;23.60;18.20
42002;PMS7003;27693;50.506;30.832;2023-08-06T05:16:13;23.90;23.30;18.80
42002;PMS7003;27693;50.506;30.832;2023-08-06T05:17:15;23.89;22.11;17.11
42002;PMS7003;27693;50.506;30.832;2023-08-06T05:18:17;22.60;22.50;17.50
42002;PMS7003;27693;50.506;30.832;2023-08-06T05:19:19;21.90;20.30;16.80
42002;PMS7003;27693;50.506;30.832;2023-08-06T05:20:22;22.90;19.50;16.50
42002;PMS7003;27693;50.506;30.832;2023-08-06T05:21:24;21.67;19.67;16.33
42002;PMS7003;27693;50.506;30.832;2023-08-06T05:22:26;23.44;21.22;16.33
42002;PMS7003;27693;50.506;30.832;2023-08-06T05:23:28;23.33;21.33;15.89
42002;PMS7003;27693;50.506;30.832;2023-08-06T05:24:31;23.78;22.78;16.89
42002;PMS7003;27693;50.506;30.832;2023-08-06T05:25:35;22.22;19.78;15.78
42002;PMS7003;27693;50.506;30.832;2023-08-06T05:26:38;25.30;23.50;16.30
42002;PMS7003;27693;50.506;30.832;2023-08-06T05:27:41;23.70;21.70;18.00
42002;PMS7003;27693;50.506;30.832;2023-08-06T05:28:43;22.00;20.33;17.44
42002;PMS7003;27693;50.506;30.832;2023-08-06T05:29:47;19.80;19.80;16.20
42002;PMS7003;27693;50.506;30.832;2023-08-06T05:30:51;22.50;20.90;16.80
42002;PMS7003;27693;50.506;30.832;2023-08-06T05:31:53;21.40;20.80;16.90
42002;PMS7003;27693;50.506;30.832;2023-08-06T05:32:56;25.45;21.73;17.00
42002;PMS7003;27693;50.506;30.832;2023-08-06T05:33:58;26.70;23.70;18.70
42002;PMS7003;27693;50.506;30.832;2023-08-06T05:35:01;22.36;21.27;18.18
42002;PMS7003;27693;50.506;30.832;2023-08-06T05:36:04;19.30;18.30;16.80
42002;PMS7003;27693;50.506;30.832;2023-08-06T05:37:06;23.50;20.90;17.00
42002;PMS7003;27693;50.506;30.832;2023-08-06T05:38:09;23.80;23.40;18.30
42002;PMS7003;27693;50.506;30.832;2023-08-06T05:39:11;25.30;25.00;19.20
42002;PMS7003;27693;50.506;30.832;2023-08-06T05:40:14;23.40;22.30;17.50
42002;PMS7003;27693;50.506;30.832;2023-08-06T05:41:16;23.20;22.50;17.30
42002;PMS7003;27693;50.506;30.832;2023-08-06T05:42:20;29.20;23.80;18.50
42002;PMS7003;27693;50.506;30.832;2023-08-06T05:43:22;22.30;22.00;18.20
42002;PMS7003;27693;50.506;30.832;2023-08-06T05:44:25;23.50;21.30;16.60
42002;PMS7003;27693;50.506;30.832;2023-08-06T05:45:27;25.80;23.10;17.80
42002;PMS7003;27693;50.506;30.832;2023-08-06T05:46:30;26.90;23.20;18.00
42002;PMS7003;27693;50.506;30.832;2023-08-06T05:47:32;24.09;22.64;16.64
42002;PMS7003;27693;50.506;30.832;2023-08-06T05:48:36;23.90;22.80;17.50
42002;PMS7003;27693;50.506;30.832;2023-08-06T05:49:38;26.80;24.60;18.90
42002;PMS7003;27693;50.506;30.832;2023-08-06T05:50:41;23.00;22.00;16.90
42002;PMS7003;27693;50.506;30.832;2023-08-06T05:51:43;24.36;22.64;16.55
42002;PMS7003;27693;50.506;30.832;2023-08-06T05:52:46;23.90;22.20;16.30
42002;PMS7003;27693;50.506;30.832;2023-08-06T05:53:48;23.00;22.00;17.60
42002;PMS7003;27693;50.506;30.832;2023-08-06T05:54:52;23.40;19.50;15.80
42002;PMS7003;27693;50.506;30.832;2023-08-06T05:55:54;26.50;23.90;18.60
42002;PMS7003;27693;50.506;30.832;2023-08-06T05:56:58;22.40;22.20;17.10
42002;PMS7003;27693;50.506;30.832;2023-08-06T05:58:00;26.30;23.70;19.60